Terminal Aerodrome Forecast
Issued by NWS Wilmington, NC

Home | Current Version | Previous Version | Text Only | Print | Product List | Glossary On
Versions: 1 2 3 4 5 6 7 8 9 10 11 12 13 14 15 16 17
000
FTUS42 KILM 260500
TAFMYR
TAF
KMYR 260533Z 2606/2706 22006KT P6SM FEW030 SCT070 SCT100
     FM260900 24007KT P6SM SCT035 BKN090
     FM261100 26010KT P6SM SCT030 BKN050 BKN100
     FM261700 27012G22KT P6SM VCSH BKN030
     FM270200 29014G20KT P6SM SCT025 BKN050
      AMD LTD TO CLD VIS AND WIND TIL 261100=

USA.gov is the U.S. government's official web portal to all federal, state and local government web resources and services.